sensor_id;sensor_type;location;lat;lon;timestamp;temperature;humidity
45489;DHT22;31236;55.026;61.042;2023-09-07T00:00:05;8.00;95.30
45489;DHT22;31236;55.026;61.042;2023-09-07T00:02:37;8.00;95.20
45489;DHT22;31236;55.026;61.042;2023-09-07T00:05:08;8.00;95.20
45489;DHT22;31236;55.026;61.042;2023-09-07T00:07:38;8.00;95.30
45489;DHT22;31236;55.026;61.042;2023-09-07T00:10:08;7.90;95.40
45489;DHT22;31236;55.026;61.042;2023-09-07T00:12:38;7.90;95.30
45489;DHT22;31236;55.026;61.042;2023-09-07T00:15:09;7.90;95.30
45489;DHT22;31236;55.026;61.042;2023-09-07T00:17:39;7.90;95.30
45489;DHT22;31236;55.026;61.042;2023-09-07T00:20:10;7.90;95.30
45489;DHT22;31236;55.026;61.042;2023-09-07T00:23:00;7.90;95.40
45489;DHT22;31236;55.026;61.042;2023-09-07T00:25:30;7.80;95.50
45489;DHT22;31236;55.026;61.042;2023-09-07T00:28:00;7.80;95.50
45489;DHT22;31236;55.026;61.042;2023-09-07T00:30:31;7.80;95.50
45489;DHT22;31236;55.026;61.042;2023-09-07T00:33:01;7.80;95.50
45489;DHT22;31236;55.026;61.042;2023-09-07T00:35:31;7.80;95.60
45489;DHT22;31236;55.026;61.042;2023-09-07T00:38:02;7.80;95.50
45489;DHT22;31236;55.026;61.042;2023-09-07T00:40:31;7.90;95.40
45489;DHT22;31236;55.026;61.042;2023-09-07T00:43:01;7.90;95.50
45489;DHT22;31236;55.026;61.042;2023-09-07T00:45:31;7.90;95.50
45489;DHT22;31236;55.026;61.042;2023-09-07T00:48:02;7.90;95.50
45489;DHT22;31236;55.026;61.042;2023-09-07T00:50:32;7.80;95.60
45489;DHT22;31236;55.026;61.042;2023-09-07T00:53:02;7.80;95.60
45489;DHT22;31236;55.026;61.042;2023-09-07T00:55:34;7.80;95.70
45489;DHT22;31236;55.026;61.042;2023-09-07T00:58:05;7.70;95.80
45489;DHT22;31236;55.026;61.042;2023-09-07T01:00:35;7.70;95.80
45489;DHT22;31236;55.026;61.042;2023-09-07T01:03:06;7.70;95.80
45489;DHT22;31236;55.026;61.042;2023-09-07T01:11:19;7.60;96.00
45489;DHT22;31236;55.026;61.042;2023-09-07T01:13:50;7.60;95.90
45489;DHT22;31236;55.026;61.042;2023-09-07T01:16:22;7.50;96.00
45489;DHT22;31236;55.026;61.042;2023-09-07T01:18:53;7.50;96.00
45489;DHT22;31236;55.026;61.042;2023-09-07T01:21:23;7.50;96.00
45489;DHT22;31236;55.026;61.042;2023-09-07T01:23:54;7.50;96.10
45489;DHT22;31236;55.026;61.042;2023-09-07T01:26:25;7.50;96.20
45489;DHT22;31236;55.026;61.042;2023-09-07T01:28:55;7.40;96.20
45489;DHT22;31236;55.026;61.042;2023-09-07T01:31:26;7.40;96.20
45489;DHT22;31236;55.026;61.042;2023-09-07T01:33:56;7.40;96.20
45489;DHT22;31236;55.026;61.042;2023-09-07T01:36:26;7.30;96.10
45489;DHT22;31236;55.026;61.042;2023-09-07T01:38:56;7.40;96.10
45489;DHT22;31236;55.026;61.042;2023-09-07T01:41:26;7.30;96.10
45489;DHT22;31236;55.026;61.042;2023-09-07T01:43:57;7.30;96.10
45489;DHT22;31236;55.026;61.042;2023-09-07T01:46:27;7.30;96.10
45489;DHT22;31236;55.026;61.042;2023-09-07T01:48:57;7.20;96.20
45489;DHT22;31236;55.026;61.042;2023-09-07T01:51:27;7.20;96.30
45489;DHT22;31236;55.026;61.042;2023-09-07T01:53:57;7.20;96.30
45489;DHT22;31236;55.026;61.042;2023-09-07T01:56:27;7.20;96.30
45489;DHT22;31236;55.026;61.042;2023-09-07T01:58:57;7.20;96.30
45489;DHT22;31236;55.026;61.042;2023-09-07T02:01:46;7.20;96.30
45489;DHT22;31236;55.026;61.042;2023-09-07T02:04:17;7.20;96.20
45489;DHT22;31236;55.026;61.042;2023-09-07T02:06:47;7.30;96.00
45489;DHT22;31236;55.026;61.042;2023-09-07T02:09:17;7.30;96.10
45489;DHT22;31236;55.026;61.042;2023-09-07T02:11:46;7.30;96.10
45489;DHT22;31236;55.026;61.042;2023-09-07T02:14:16;7.30;96.10
45489;DHT22;31236;55.026;61.042;2023-09-07T02:16:47;7.30;96.10
45489;DHT22;31236;55.026;61.042;2023-09-07T02:19:18;7.30;96.00
45489;DHT22;31236;55.026;61.042;2023-09-07T02:21:50;7.30;96.10
45489;DHT22;31236;55.026;61.042;2023-09-07T02:24:21;7.30;96.20
45489;DHT22;31236;55.026;61.042;2023-09-07T02:26:51;7.40;96.10
45489;DHT22;31236;55.026;61.042;2023-09-07T02:29:21;7.50;96.00
45489;DHT22;31236;55.026;61.042;2023-09-07T02:31:51;7.50;96.10
45489;DHT22;31236;55.026;61.042;2023-09-07T02:34:21;7.50;96.10
45489;DHT22;31236;55.026;61.042;2023-09-07T02:36:51;7.60;96.20
45489;DHT22;31236;55.026;61.042;2023-09-07T02:39:22;7.70;96.10
45489;DHT22;31236;55.026;61.042;2023-09-07T02:42:11;7.80;96.00
45489;DHT22;31236;55.026;61.042;2023-09-07T02:44:41;7.80;96.00
45489;DHT22;31236;55.026;61.042;2023-09-07T02:47:11;7.80;96.20
45489;DHT22;31236;55.026;61.042;2023-09-07T02:49:41;7.90;96.20
45489;DHT22;31236;55.026;61.042;2023-09-07T02:52:11;8.00;96.10
45489;DHT22;31236;55.026;61.042;2023-09-07T02:54:42;8.10;96.10
45489;DHT22;31236;55.026;61.042;2023-09-07T02:57:12;8.10;96.20
45489;DHT22;31236;55.026;61.042;2023-09-07T02:59:42;8.20;96.20
45489;DHT22;31236;55.026;61.042;2023-09-07T03:02:12;8.30;96.20
45489;DHT22;31236;55.026;61.042;2023-09-07T03:04:43;8.40;96.20
45489;DHT22;31236;55.026;61.042;2023-09-07T03:07:13;8.60;96.20
45489;DHT22;31236;55.026;61.042;2023-09-07T03:09:43;8.60;96.10
45489;DHT22;31236;55.026;61.042;2023-09-07T03:12:13;8.70;96.10
45489;DHT22;31236;55.026;61.042;2023-09-07T03:15:03;8.80;96.20
45489;DHT22;31236;55.026;61.042;2023-09-07T03:17:34;8.80;96.20
45489;DHT22;31236;55.026;61.042;2023-09-07T03:20:05;8.90;96.30
45489;DHT22;31236;55.026;61.042;2023-09-07T03:22:54;8.90;96.30
45489;DHT22;31236;55.026;61.042;2023-09-07T03:25:25;9.10;96.30
45489;DHT22;31236;55.026;61.042;2023-09-07T03:27:55;9.20;96.40
45489;DHT22;31236;55.026;61.042;2023-09-07T03:30:25;9.30;96.30
45489;DHT22;31236;55.026;61.042;2023-09-07T03:32:56;9.50;96.30
45489;DHT22;31236;55.026;61.042;2023-09-07T03:35:26;9.60;96.30
45489;DHT22;31236;55.026;61.042;2023-09-07T03:37:56;9.70;96.30
45489;DHT22;31236;55.026;61.042;2023-09-07T03:40:26;9.90;96.30
45489;DHT22;31236;55.026;61.042;2023-09-07T03:42:56;10.00;96.20
45489;DHT22;31236;55.026;61.042;2023-09-07T03:45:26;10.20;96.20
45489;DHT22;31236;55.026;61.042;2023-09-07T03:47:56;10.20;96.20
45489;DHT22;31236;55.026;61.042;2023-09-07T03:50:26;10.20;96.30
45489;DHT22;31236;55.026;61.042;2023-09-07T03:52:56;10.30;96.40
45489;DHT22;31236;55.026;61.042;2023-09-07T03:55:26;10.30;96.40
45489;DHT22;31236;55.026;61.042;2023-09-07T03:57:56;10.40;96.50
45489;DHT22;31236;55.026;61.042;2023-09-07T04:00:26;10.50;96.50
45489;DHT22;31236;55.026;61.042;2023-09-07T04:02:58;10.50;96.50
45489;DHT22;31236;55.026;61.042;2023-09-07T04:05:28;10.80;96.40
45489;DHT22;31236;55.026;61.042;2023-09-07T04:07:58;10.90;96.30
45489;DHT22;31236;55.026;61.042;2023-09-07T04:10:29;11.00;96.40
45489;DHT22;31236;55.026;61.042;2023-09-07T04:13:00;11.10;96.40
45489;DHT22;31236;55.026;61.042;2023-09-07T04:15:30;11.10;96.40
45489;DHT22;31236;55.026;61.042;2023-09-07T04:18:00;11.20;96.40
45489;DHT22;31236;55.026;61.042;2023-09-07T04:20:30;11.20;96.50
45489;DHT22;31236;55.026;61.042;2023-09-07T04:23:01;11.20;96.60
45489;DHT22;31236;55.026;61.042;2023-09-07T04:25:31;11.20;96.70
45489;DHT22;31236;55.026;61.042;2023-09-07T04:28:01;11.40;96.70
45489;DHT22;31236;55.026;61.042;2023-09-07T04:30:32;11.50;96.60
45489;DHT22;31236;55.026;61.042;2023-09-07T04:33:02;11.60;96.70
45489;DHT22;31236;55.026;61.042;2023-09-07T04:35:33;11.80;96.50
45489;DHT22;31236;55.026;61.042;2023-09-07T04:38:03;11.90;96.50
45489;DHT22;31236;55.026;61.042;2023-09-07T04:40:33;12.10;96.60
45489;DHT22;31236;55.026;61.042;2023-09-07T04:43:03;12.30;96.50
45489;DHT22;31236;55.026;61.042;2023-09-07T04:45:34;12.50;96.40
45489;DHT22;31236;55.026;61.042;2023-09-07T04:48:04;12.80;96.30
45489;DHT22;31236;55.026;61.042;2023-09-07T04:50:34;13.00;96.10
45489;DHT22;31236;55.026;61.042;2023-09-07T04:53:05;13.20;96.20
45489;DHT22;31236;55.026;61.042;2023-09-07T04:55:37;13.30;96.30
45489;DHT22;31236;55.026;61.042;2023-09-07T04:58:06;13.60;96.20
45489;DHT22;31236;55.026;61.042;2023-09-07T05:00:36;13.80;96.00
45489;DHT22;31236;55.026;61.042;2023-09-07T05:03:06;14.00;96.00
45489;DHT22;31236;55.026;61.042;2023-09-07T05:05:36;14.00;96.10
45489;DHT22;31236;55.026;61.042;2023-09-07T05:08:06;14.20;96.30
45489;DHT22;31236;55.026;61.042;2023-09-07T05:10:37;14.40;96.20
45489;DHT22;31236;55.026;61.042;2023-09-07T05:13:07;14.40;96.30
45489;DHT22;31236;55.026;61.042;2023-09-07T05:15:46;14.40;96.50
45489;DHT22;31236;55.026;61.042;2023-09-07T05:18:09;14.40;96.50
45489;DHT22;31236;55.026;61.042;2023-09-07T05:20:39;14.60;96.70
45489;DHT22;31236;55.026;61.042;2023-09-07T05:23:09;14.70;96.60
45489;DHT22;31236;55.026;61.042;2023-09-07T05:25:59;15.00;96.50
45489;DHT22;31236;55.026;61.042;2023-09-07T05:28:29;15.10;96.50
45489;DHT22;31236;55.026;61.042;2023-09-07T05:31:00;15.10;96.40
45489;DHT22;31236;55.026;61.042;2023-09-07T05:33:31;15.20;96.60
45489;DHT22;31236;55.026;61.042;2023-09-07T05:36:01;15.30;96.70
45489;DHT22;31236;55.026;61.042;2023-09-07T05:38:32;15.40;96.70
45489;DHT22;31236;55.026;61.042;2023-09-07T05:41:02;15.50;96.70
45489;DHT22;31236;55.026;61.042;2023-09-07T05:43:32;15.60;96.80
45489;DHT22;31236;55.026;61.042;2023-09-07T05:46:02;15.70;96.80
45489;DHT22;31236;55.026;61.042;2023-09-07T05:48:32;15.90;96.70
45489;DHT22;31236;55.026;61.042;2023-09-07T05:51:01;16.10;96.60
45489;DHT22;31236;55.026;61.042;2023-09-07T05:53:31;16.20;96.60
45489;DHT22;31236;55.026;61.042;2023-09-07T05:56:02;16.30;96.50
45489;DHT22;31236;55.026;61.042;2023-09-07T05:58:32;16.50;96.40
45489;DHT22;31236;55.026;61.042;2023-09-07T06:01:03;16.70;96.40
45489;DHT22;31236;55.026;61.042;2023-09-07T06:03:34;16.80;96.30
45489;DHT22;31236;55.026;61.042;2023-09-07T06:06:05;16.90;96.30
45489;DHT22;31236;55.026;61.042;2023-09-07T06:08:35;17.10;96.20
45489;DHT22;31236;55.026;61.042;2023-09-07T06:11:06;17.10;96.10
45489;DHT22;31236;55.026;61.042;2023-09-07T06:13:36;17.20;96.20
45489;DHT22;31236;55.026;61.042;2023-09-07T06:16:06;17.30;96.10
45489;DHT22;31236;55.026;61.042;2023-09-07T06:18:36;17.30;96.00
45489;DHT22;31236;55.026;61.042;2023-09-07T06:21:06;17.40;96.00
45489;DHT22;31236;55.026;61.042;2023-09-07T06:23:36;17.50;95.90
45489;DHT22;31236;55.026;61.042;2023-09-07T06:26:09;17.60;95.80
45489;DHT22;31236;55.026;61.042;2023-09-07T06:28:39;17.60;95.70
45489;DHT22;31236;55.026;61.042;2023-09-07T06:31:09;17.60;95.70
45489;DHT22;31236;55.026;61.042;2023-09-07T06:33:39;17.60;95.70
45489;DHT22;31236;55.026;61.042;2023-09-07T06:36:09;17.70;95.60
45489;DHT22;31236;55.026;61.042;2023-09-07T06:38:39;17.70;95.50
45489;DHT22;31236;55.026;61.042;2023-09-07T06:41:10;17.90;95.40
45489;DHT22;31236;55.026;61.042;2023-09-07T06:43:40;17.90;95.30
45489;DHT22;31236;55.026;61.042;2023-09-07T06:46:10;18.00;95.20
45489;DHT22;31236;55.026;61.042;2023-09-07T06:48:41;18.10;95.10
45489;DHT22;31236;55.026;61.042;2023-09-07T06:51:11;18.20;95.00
45489;DHT22;31236;55.026;61.042;2023-09-07T06:53:41;18.10;95.00
45489;DHT22;31236;55.026;61.042;2023-09-07T06:56:11;18.20;95.00
45489;DHT22;31236;55.026;61.042;2023-09-07T06:58:41;18.20;94.90
45489;DHT22;31236;55.026;61.042;2023-09-07T07:01:11;18.30;94.80
45489;DHT22;31236;55.026;61.042;2023-09-07T07:03:41;18.30;94.70
45489;DHT22;31236;55.026;61.042;2023-09-07T07:06:11;18.30;94.60
45489;DHT22;31236;55.026;61.042;2023-09-07T07:08:41;18.40;94.50
45489;DHT22;31236;55.026;61.042;2023-09-07T07:11:12;18.40;94.40
45489;DHT22;31236;55.026;61.042;2023-09-07T07:13:43;18.40;94.30
45489;DHT22;31236;55.026;61.042;2023-09-07T07:16:13;18.40;94.30
45489;DHT22;31236;55.026;61.042;2023-09-07T07:18:43;18.50;94.20
45489;DHT22;31236;55.026;61.042;2023-09-07T07:21:13;18.60;94.10
45489;DHT22;31236;55.026;61.042;2023-09-07T07:23:43;18.70;93.90
45489;DHT22;31236;55.026;61.042;2023-09-07T07:26:13;18.70;93.90
45489;DHT22;31236;55.026;61.042;2023-09-07T07:28:43;18.70;93.80
45489;DHT22;31236;55.026;61.042;2023-09-07T07:31:13;18.70;93.80
45489;DHT22;31236;55.026;61.042;2023-09-07T07:33:43;18.70;93.70
45489;DHT22;31236;55.026;61.042;2023-09-07T07:36:13;18.70;93.50
45489;DHT22;31236;55.026;61.042;2023-09-07T07:38:43;18.80;93.40
45489;DHT22;31236;55.026;61.042;2023-09-07T07:41:13;18.80;93.20
45489;DHT22;31236;55.026;61.042;2023-09-07T07:43:43;18.80;93.10
45489;DHT22;31236;55.026;61.042;2023-09-07T07:46:14;18.80;92.90
45489;DHT22;31236;55.026;61.042;2023-09-07T07:48:44;18.90;92.90
45489;DHT22;31236;55.026;61.042;2023-09-07T07:51:15;18.90;92.70
45489;DHT22;31236;55.026;61.042;2023-09-07T07:53:45;19.00;92.50
45489;DHT22;31236;55.026;61.042;2023-09-07T07:56:34;19.00;92.30
45489;DHT22;31236;55.026;61.042;2023-09-07T07:59:05;19.10;92.20
45489;DHT22;31236;55.026;61.042;2023-09-07T08:01:35;19.10;92.00
45489;DHT22;31236;55.026;61.042;2023-09-07T08:04:05;19.20;91.90
45489;DHT22;31236;55.026;61.042;2023-09-07T08:06:36;19.10;91.70
45489;DHT22;31236;55.026;61.042;2023-09-07T08:09:06;19.10;91.80
45489;DHT22;31236;55.026;61.042;2023-09-07T08:11:36;19.10;91.70
45489;DHT22;31236;55.026;61.042;2023-09-07T08:14:06;19.20;91.60
45489;DHT22;31236;55.026;61.042;2023-09-07T08:16:37;19.30;91.50
45489;DHT22;31236;55.026;61.042;2023-09-07T08:19:07;19.20;91.50
45489;DHT22;31236;55.026;61.042;2023-09-07T08:21:37;19.30;91.30
45489;DHT22;31236;55.026;61.042;2023-09-07T08:24:09;19.40;91.20
45489;DHT22;31236;55.026;61.042;2023-09-07T08:26:39;19.50;91.10
45489;DHT22;31236;55.026;61.042;2023-09-07T08:29:09;19.50;91.00
45489;DHT22;31236;55.026;61.042;2023-09-07T08:31:39;19.60;91.00
45489;DHT22;31236;55.026;61.042;2023-09-07T08:34:10;19.60;90.90
45489;DHT22;31236;55.026;61.042;2023-09-07T08:36:40;19.60;90.80
45489;DHT22;31236;55.026;61.042;2023-09-07T08:39:10;19.70;90.80
45489;DHT22;31236;55.026;61.042;2023-09-07T08:41:41;19.80;90.70
45489;DHT22;31236;55.026;61.042;2023-09-07T08:44:13;19.80;90.60
45489;DHT22;31236;55.026;61.042;2023-09-07T08:46:44;19.70;90.50
45489;DHT22;31236;55.026;61.042;2023-09-07T08:49:14;19.70;90.40
45489;DHT22;31236;55.026;61.042;2023-09-07T08:52:05;19.80;90.40
45489;DHT22;31236;55.026;61.042;2023-09-07T08:54:37;19.80;90.20
45489;DHT22;31236;55.026;61.042;2023-09-07T08:57:07;19.90;90.10
45489;DHT22;31236;55.026;61.042;2023-09-07T08:59:38;19.90;90.10
45489;DHT22;31236;55.026;61.042;2023-09-07T09:02:27;20.00;90.00
45489;DHT22;31236;55.026;61.042;2023-09-07T09:04:58;20.00;89.80
45489;DHT22;31236;55.026;61.042;2023-09-07T09:07:28;20.00;89.50
45489;DHT22;31236;55.026;61.042;2023-09-07T09:10:18;19.90;89.50
45489;DHT22;31236;55.026;61.042;2023-09-07T09:12:48;19.80;89.40
45489;DHT22;31236;55.026;61.042;2023-09-07T09:15:19;19.80;89.30
45489;DHT22;31236;55.026;61.042;2023-09-07T09:17:49;19.90;89.00
45489;DHT22;31236;55.026;61.042;2023-09-07T09:20:38;19.90;89.00
45489;DHT22;31236;55.026;61.042;2023-09-07T09:23:09;19.90;88.80
45489;DHT22;31236;55.026;61.042;2023-09-07T09:25:42;20.00;88.50
45489;DHT22;31236;55.026;61.042;2023-09-07T09:28:11;20.10;88.20
45489;DHT22;31236;55.026;61.042;2023-09-07T09:30:42;20.20;88.10
45489;DHT22;31236;55.026;61.042;2023-09-07T09:33:12;20.20;88.10
45489;DHT22;31236;55.026;61.042;2023-09-07T09:35:43;20.20;88.00
45489;DHT22;31236;55.026;61.042;2023-09-07T09:38:13;20.30;87.80
45489;DHT22;31236;55.026;61.042;2023-09-07T09:40:43;20.30;87.60
45489;DHT22;31236;55.026;61.042;2023-09-07T09:43:14;20.30;87.40
45489;DHT22;31236;55.026;61.042;2023-09-07T09:45:44;20.20;87.50
45489;DHT22;31236;55.026;61.042;2023-09-07T09:48:14;20.10;87.50
45489;DHT22;31236;55.026;61.042;2023-09-07T09:50:47;20.00;87.60
45489;DHT22;31236;55.026;61.042;2023-09-07T09:53:18;20.00;87.40
45489;DHT22;31236;55.026;61.042;2023-09-07T09:55:50;20.00;87.00
45489;DHT22;31236;55.026;61.042;2023-09-07T09:58:21;20.10;86.80
45489;DHT22;31236;55.026;61.042;2023-09-07T10:04:02;20.30;86.10
45489;DHT22;31236;55.026;61.042;2023-09-07T10:06:34;20.40;85.70
45489;DHT22;31236;55.026;61.042;2023-09-07T10:09:05;20.50;85.60
45489;DHT22;31236;55.026;61.042;2023-09-07T10:11:38;20.50;85.30
45489;DHT22;31236;55.026;61.042;2023-09-07T10:14:08;20.60;85.10
45489;DHT22;31236;55.026;61.042;2023-09-07T10:16:59;20.50;85.00
45489;DHT22;31236;55.026;61.042;2023-09-07T10:19:30;20.40;84.90
45489;DHT22;31236;55.026;61.042;2023-09-07T10:22:02;20.40;84.90
45489;DHT22;31236;55.026;61.042;2023-09-07T10:24:34;20.40;84.80
45489;DHT22;31236;55.026;61.042;2023-09-07T10:27:07;20.40;84.70
45489;DHT22;31236;55.026;61.042;2023-09-07T10:29:57;20.50;84.50
45489;DHT22;31236;55.026;61.042;2023-09-07T10:32:37;20.50;84.20
45489;DHT22;31236;55.026;61.042;2023-09-07T10:34:59;20.50;84.10
45489;DHT22;31236;55.026;61.042;2023-09-07T10:37:31;20.40;84.30
45489;DHT22;31236;55.026;61.042;2023-09-07T10:40:01;20.40;84.20
45489;DHT22;31236;55.026;61.042;2023-09-07T10:42:33;20.50;84.00
45489;DHT22;31236;55.026;61.042;2023-09-07T10:45:22;20.50;83.60
45489;DHT22;31236;55.026;61.042;2023-09-07T10:47:53;20.40;83.50
45489;DHT22;31236;55.026;61.042;2023-09-07T10:50:23;20.40;83.20
45489;DHT22;31236;55.026;61.042;2023-09-07T10:52:54;20.50;83.00
45489;DHT22;31236;55.026;61.042;2023-09-07T10:55:25;20.50;82.80
45489;DHT22;31236;55.026;61.042;2023-09-07T10:57:55;20.40;82.90
45489;DHT22;31236;55.026;61.042;2023-09-07T11:00:25;20.40;82.80
45489;DHT22;31236;55.026;61.042;2023-09-07T11:02:56;20.50;82.60
45489;DHT22;31236;55.026;61.042;2023-09-07T11:05:26;20.60;82.50
45489;DHT22;31236;55.026;61.042;2023-09-07T11:07:56;20.60;82.00
45489;DHT22;31236;55.026;61.042;2023-09-07T11:10:28;20.50;81.90
45489;DHT22;31236;55.026;61.042;2023-09-07T11:13:01;20.50;81.80
45489;DHT22;31236;55.026;61.042;2023-09-07T11:15:33;20.40;81.80
45489;DHT22;31236;55.026;61.042;2023-09-07T11:18:22;20.30;81.80
45489;DHT22;31236;55.026;61.042;2023-09-07T11:20:53;20.20;81.90
45489;DHT22;31236;55.026;61.042;2023-09-07T11:23:23;20.20;81.70
45489;DHT22;31236;55.026;61.042;2023-09-07T11:25:54;20.30;81.50
45489;DHT22;31236;55.026;61.042;2023-09-07T11:28:25;20.30;81.20
45489;DHT22;31236;55.026;61.042;2023-09-07T11:30:55;20.30;80.90
45489;DHT22;31236;55.026;61.042;2023-09-07T11:33:26;20.40;80.80
45489;DHT22;31236;55.026;61.042;2023-09-07T11:35:56;20.40;80.70
45489;DHT22;31236;55.026;61.042;2023-09-07T11:40:59;20.50;80.30
45489;DHT22;31236;55.026;61.042;2023-09-07T11:43:30;20.40;80.10
45489;DHT22;31236;55.026;61.042;2023-09-07T11:46:00;20.50;80.20
45489;DHT22;31236;55.026;61.042;2023-09-07T11:48:31;20.50;80.20
45489;DHT22;31236;55.026;61.042;2023-09-07T11:51:02;20.50;79.80
45489;DHT22;31236;55.026;61.042;2023-09-07T11:53:32;20.60;79.60
45489;DHT22;31236;55.026;61.042;2023-09-07T11:56:02;20.60;79.50
45489;DHT22;31236;55.026;61.042;2023-09-07T11:58:32;20.60;79.40
45489;DHT22;31236;55.026;61.042;2023-09-07T12:01:02;20.60;79.20
45489;DHT22;31236;55.026;61.042;2023-09-07T12:03:33;20.60;79.00
45489;DHT22;31236;55.026;61.042;2023-09-07T12:06:03;20.60;79.00
45489;DHT22;31236;55.026;61.042;2023-09-07T12:08:34;20.60;78.90
45489;DHT22;31236;55.026;61.042;2023-09-07T12:11:04;20.60;78.80
45489;DHT22;31236;55.026;61.042;2023-09-07T12:13:34;20.60;78.40
45489;DHT22;31236;55.026;61.042;2023-09-07T12:16:04;20.60;78.40
45489;DHT22;31236;55.026;61.042;2023-09-07T12:18:35;20.40;78.50
45489;DHT22;31236;55.026;61.042;2023-09-07T12:21:05;20.20;78.80
45489;DHT22;31236;55.026;61.042;2023-09-07T12:23:36;20.20;79.00
45489;DHT22;31236;55.026;61.042;2023-09-07T12:26:05;20.20;78.90
45489;DHT22;31236;55.026;61.042;2023-09-07T12:28:36;20.20;79.10
45489;DHT22;31236;55.026;61.042;2023-09-07T12:31:06;20.20;79.10
45489;DHT22;31236;55.026;61.042;2023-09-07T12:33:37;20.20;78.90
45489;DHT22;31236;55.026;61.042;2023-09-07T12:36:07;20.30;79.10
45489;DHT22;31236;55.026;61.042;2023-09-07T12:38:38;20.30;79.30
45489;DHT22;31236;55.026;61.042;2023-09-07T12:41:08;20.20;79.50
45489;DHT22;31236;55.026;61.042;2023-09-07T12:43:38;20.30;79.60
45489;DHT22;31236;55.026;61.042;2023-09-07T12:46:10;20.40;79.80
45489;DHT22;31236;55.026;61.042;2023-09-07T12:48:40;20.50;79.70
45489;DHT22;31236;55.026;61.042;2023-09-07T12:51:12;20.50;79.90
45489;DHT22;31236;55.026;61.042;2023-09-07T12:53:43;20.50;79.90
45489;DHT22;31236;55.026;61.042;2023-09-07T12:56:13;20.40;80.00
45489;DHT22;31236;55.026;61.042;2023-09-07T12:58:45;20.40;80.10
45489;DHT22;31236;55.026;61.042;2023-09-07T13:01:16;20.30;80.30
45489;DHT22;31236;55.026;61.042;2023-09-07T13:03:46;20.20;80.50
45489;DHT22;31236;55.026;61.042;2023-09-07T13:06:16;20.20;80.60
45489;DHT22;31236;55.026;61.042;2023-09-07T13:08:46;20.20;80.90
45489;DHT22;31236;55.026;61.042;2023-09-07T13:11:16;20.10;81.10
45489;DHT22;31236;55.026;61.042;2023-09-07T13:13:46;20.10;81.20
45489;DHT22;31236;55.026;61.042;2023-09-07T13:16:16;20.10;81.20
45489;DHT22;31236;55.026;61.042;2023-09-07T13:18:47;20.10;81.20
45489;DHT22;31236;55.026;61.042;2023-09-07T13:21:17;20.10;81.40
45489;DHT22;31236;55.026;61.042;2023-09-07T13:23:47;20.10;81.50
45489;DHT22;31236;55.026;61.042;2023-09-07T13:26:17;20.00;81.80
45489;DHT22;31236;55.026;61.042;2023-09-07T13:28:47;19.90;82.00
45489;DHT22;31236;55.026;61.042;2023-09-07T13:31:17;19.80;82.00
45489;DHT22;31236;55.026;61.042;2023-09-07T13:33:47;19.80;82.10
45489;DHT22;31236;55.026;61.042;2023-09-07T13:36:17;19.70;82.20
45489;DHT22;31236;55.026;61.042;2023-09-07T13:38:47;19.60;82.60
45489;DHT22;31236;55.026;61.042;2023-09-07T13:41:17;19.40;83.00
45489;DHT22;31236;55.026;61.042;2023-09-07T13:43:47;19.40;83.50
45489;DHT22;31236;55.026;61.042;2023-09-07T13:46:17;19.30;83.80
45489;DHT22;31236;55.026;61.042;2023-09-07T13:48:47;19.20;84.20
45489;DHT22;31236;55.026;61.042;2023-09-07T13:51:17;19.00;84.60
45489;DHT22;31236;55.026;61.042;2023-09-07T13:53:48;19.00;85.00
45489;DHT22;31236;55.026;61.042;2023-09-07T13:56:18;18.90;85.30
45489;DHT22;31236;55.026;61.042;2023-09-07T13:58:48;18.80;85.70
45489;DHT22;31236;55.026;61.042;2023-09-07T14:01:18;18.70;85.80
45489;DHT22;31236;55.026;61.042;2023-09-07T14:03:48;18.70;85.90
45489;DHT22;31236;55.026;61.042;2023-09-07T14:06:18;18.60;86.00
45489;DHT22;31236;55.026;61.042;2023-09-07T14:08:50;18.50;86.10
45489;DHT22;31236;55.026;61.042;2023-09-07T14:11:20;18.40;86.30
45489;DHT22;31236;55.026;61.042;2023-09-07T14:13:51;18.30;86.50
45489;DHT22;31236;55.026;61.042;2023-09-07T14:16:22;18.20;86.80
45489;DHT22;31236;55.026;61.042;2023-09-07T14:18:52;18.10;87.00
45489;DHT22;31236;55.026;61.042;2023-09-07T14:21:22;18.00;87.30
45489;DHT22;31236;55.026;61.042;2023-09-07T14:23:52;17.80;87.50
45489;DHT22;31236;55.026;61.042;2023-09-07T14:26:23;17.80;87.80
45489;DHT22;31236;55.026;61.042;2023-09-07T14:28:53;17.70;87.80
45489;DHT22;31236;55.026;61.042;2023-09-07T14:31:23;17.60;88.00
45489;DHT22;31236;55.026;61.042;2023-09-07T14:33:53;17.50;88.00
45489;DHT22;31236;55.026;61.042;2023-09-07T14:36:23;17.50;88.20
45489;DHT22;31236;55.026;61.042;2023-09-07T14:38:55;17.40;88.40
45489;DHT22;31236;55.026;61.042;2023-09-07T14:41:25;17.30;88.50
45489;DHT22;31236;55.026;61.042;2023-09-07T14:43:57;17.20;88.60
45489;DHT22;31236;55.026;61.042;2023-09-07T14:46:27;17.10;88.80
45489;DHT22;31236;55.026;61.042;2023-09-07T14:48:57;17.00;89.10
45489;DHT22;31236;55.026;61.042;2023-09-07T14:51:28;16.90;89.30
45489;DHT22;31236;55.026;61.042;2023-09-07T14:53:58;16.90;89.50
45489;DHT22;31236;55.026;61.042;2023-09-07T14:56:28;16.80;89.60
45489;DHT22;31236;55.026;61.042;2023-09-07T14:59:00;16.70;89.80
45489;DHT22;31236;55.026;61.042;2023-09-07T15:01:30;16.70;89.90
45489;DHT22;31236;55.026;61.042;2023-09-07T15:03:59;16.70;90.00
45489;DHT22;31236;55.026;61.042;2023-09-07T15:06:29;16.70;90.00
45489;DHT22;31236;55.026;61.042;2023-09-07T15:09:00;16.60;90.00
45489;DHT22;31236;55.026;61.042;2023-09-07T15:11:31;16.60;90.10
45489;DHT22;31236;55.026;61.042;2023-09-07T15:14:01;16.50;90.20
45489;DHT22;31236;55.026;61.042;2023-09-07T15:16:32;16.50;90.30
45489;DHT22;31236;55.026;61.042;2023-09-07T15:19:03;16.40;90.30
45489;DHT22;31236;55.026;61.042;2023-09-07T15:21:33;16.30;90.40
45489;DHT22;31236;55.026;61.042;2023-09-07T15:24:03;16.20;90.40
45489;DHT22;31236;55.026;61.042;2023-09-07T15:29:24;16.10;90.60
45489;DHT22;31236;55.026;61.042;2023-09-07T15:31:54;16.00;90.80
45489;DHT22;31236;55.026;61.042;2023-09-07T15:34:24;16.00;90.90
45489;DHT22;31236;55.026;61.042;2023-09-07T15:36:54;16.10;91.00
45489;DHT22;31236;55.026;61.042;2023-09-07T15:39:24;16.10;91.00
45489;DHT22;31236;55.026;61.042;2023-09-07T15:41:54;16.10;91.00
45489;DHT22;31236;55.026;61.042;2023-09-07T15:44:23;16.10;91.00
45489;DHT22;31236;55.026;61.042;2023-09-07T15:46:56;16.10;91.00
45489;DHT22;31236;55.026;61.042;2023-09-07T15:49:27;16.10;91.10
45489;DHT22;31236;55.026;61.042;2023-09-07T15:51:58;16.10;91.10
45489;DHT22;31236;55.026;61.042;2023-09-07T15:54:28;16.00;91.00
45489;DHT22;31236;55.026;61.042;2023-09-07T15:57:00;16.00;91.10